sensor_id;sensor_type;location;lat;lon;timestamp;temperature;humidity
19880;DHT22;10102;50.828;4.416;2023-05-07T00:00:26;18.30;99.90
19880;DHT22;10102;50.828;4.416;2023-05-07T00:02:51;18.20;99.90
19880;DHT22;10102;50.828;4.416;2023-05-07T00:05:17;18.20;99.90
19880;DHT22;10102;50.828;4.416;2023-05-07T00:07:43;18.20;99.90
19880;DHT22;10102;50.828;4.416;2023-05-07T00:10:10;18.20;99.90
19880;DHT22;10102;50.828;4.416;2023-05-07T00:12:38;18.20;99.90
19880;DHT22;10102;50.828;4.416;2023-05-07T00:15:04;18.20;99.90
19880;DHT22;10102;50.828;4.416;2023-05-07T00:17:32;18.20;99.90
19880;DHT22;10102;50.828;4.416;2023-05-07T00:19:58;18.10;99.90
19880;DHT22;10102;50.828;4.416;2023-05-07T00:22:23;18.20;99.90
19880;DHT22;10102;50.828;4.416;2023-05-07T00:24:49;18.20;99.90
19880;DHT22;10102;50.828;4.416;2023-05-07T00:27:15;18.20;99.90
19880;DHT22;10102;50.828;4.416;2023-05-07T00:29:41;18.10;99.90
19880;DHT22;10102;50.828;4.416;2023-05-07T00:32:06;18.20;99.90
19880;DHT22;10102;50.828;4.416;2023-05-07T00:34:33;18.20;99.90
19880;DHT22;10102;50.828;4.416;2023-05-07T00:36:59;18.00;99.90
19880;DHT22;10102;50.828;4.416;2023-05-07T00:39:24;18.00;99.90
19880;DHT22;10102;50.828;4.416;2023-05-07T00:41:50;18.10;99.90
19880;DHT22;10102;50.828;4.416;2023-05-07T00:44:16;18.10;99.90
19880;DHT22;10102;50.828;4.416;2023-05-07T00:46:43;18.20;99.90
19880;DHT22;10102;50.828;4.416;2023-05-07T00:49:10;18.10;99.90
19880;DHT22;10102;50.828;4.416;2023-05-07T00:51:36;18.10;99.90
19880;DHT22;10102;50.828;4.416;2023-05-07T00:54:03;18.10;99.90
19880;DHT22;10102;50.828;4.416;2023-05-07T00:56:29;18.10;99.90
19880;DHT22;10102;50.828;4.416;2023-05-07T00:58:55;18.20;99.90
19880;DHT22;10102;50.828;4.416;2023-05-07T01:01:20;18.30;99.90
19880;DHT22;10102;50.828;4.416;2023-05-07T01:03:46;18.10;99.90
19880;DHT22;10102;50.828;4.416;2023-05-07T01:06:12;18.10;99.90
19880;DHT22;10102;50.828;4.416;2023-05-07T01:08:39;18.10;99.90
19880;DHT22;10102;50.828;4.416;2023-05-07T01:11:07;18.10;99.90
19880;DHT22;10102;50.828;4.416;2023-05-07T01:13:34;18.10;99.90
19880;DHT22;10102;50.828;4.416;2023-05-07T01:16:01;18.10;99.90
19880;DHT22;10102;50.828;4.416;2023-05-07T01:18:27;18.10;99.90
19880;DHT22;10102;50.828;4.416;2023-05-07T01:20:52;18.00;99.90
19880;DHT22;10102;50.828;4.416;2023-05-07T01:23:20;18.00;99.90
19880;DHT22;10102;50.828;4.416;2023-05-07T01:25:55;18.00;99.90
19880;DHT22;10102;50.828;4.416;2023-05-07T01:28:20;18.00;99.90
19880;DHT22;10102;50.828;4.416;2023-05-07T01:30:56;18.00;99.90
19880;DHT22;10102;50.828;4.416;2023-05-07T01:33:24;17.90;99.90
19880;DHT22;10102;50.828;4.416;2023-05-07T01:35:53;17.80;99.90
19880;DHT22;10102;50.828;4.416;2023-05-07T01:38:21;17.80;99.90
19880;DHT22;10102;50.828;4.416;2023-05-07T01:40:47;17.80;99.90
19880;DHT22;10102;50.828;4.416;2023-05-07T01:43:13;17.80;99.90
19880;DHT22;10102;50.828;4.416;2023-05-07T01:45:40;17.80;99.90
19880;DHT22;10102;50.828;4.416;2023-05-07T01:48:07;17.80;99.90
19880;DHT22;10102;50.828;4.416;2023-05-07T01:50:34;17.80;99.90
19880;DHT22;10102;50.828;4.416;2023-05-07T01:53:01;17.80;99.90
19880;DHT22;10102;50.828;4.416;2023-05-07T01:55:27;17.90;99.90
19880;DHT22;10102;50.828;4.416;2023-05-07T01:57:52;17.60;99.90
19880;DHT22;10102;50.828;4.416;2023-05-07T02:00:18;17.80;99.90
19880;DHT22;10102;50.828;4.416;2023-05-07T02:02:44;17.90;99.90
19880;DHT22;10102;50.828;4.416;2023-05-07T02:05:10;17.80;99.90
19880;DHT22;10102;50.828;4.416;2023-05-07T02:07:36;17.90;99.90
19880;DHT22;10102;50.828;4.416;2023-05-07T02:10:02;17.90;99.90
19880;DHT22;10102;50.828;4.416;2023-05-07T02:12:28;17.90;99.90
19880;DHT22;10102;50.828;4.416;2023-05-07T02:17:20;17.80;99.90
19880;DHT22;10102;50.828;4.416;2023-05-07T02:19:45;17.80;99.90
19880;DHT22;10102;50.828;4.416;2023-05-07T02:22:11;17.80;99.90
19880;DHT22;10102;50.828;4.416;2023-05-07T02:24:37;17.80;99.90
19880;DHT22;10102;50.828;4.416;2023-05-07T02:27:02;17.70;99.90
19880;DHT22;10102;50.828;4.416;2023-05-07T02:29:29;17.50;99.90
19880;DHT22;10102;50.828;4.416;2023-05-07T02:31:54;17.60;99.90
19880;DHT22;10102;50.828;4.416;2023-05-07T02:34:20;17.50;99.90
19880;DHT22;10102;50.828;4.416;2023-05-07T02:36:46;17.40;99.90
19880;DHT22;10102;50.828;4.416;2023-05-07T02:39:12;17.40;99.90
19880;DHT22;10102;50.828;4.416;2023-05-07T02:41:38;17.10;99.90
19880;DHT22;10102;50.828;4.416;2023-05-07T02:44:04;17.20;99.90
19880;DHT22;10102;50.828;4.416;2023-05-07T02:46:30;17.20;99.90
19880;DHT22;10102;50.828;4.416;2023-05-07T02:48:56;17.30;99.90
19880;DHT22;10102;50.828;4.416;2023-05-07T02:51:22;17.20;99.90
19880;DHT22;10102;50.828;4.416;2023-05-07T02:53:49;17.00;99.90
19880;DHT22;10102;50.828;4.416;2023-05-07T02:56:15;17.20;99.90
19880;DHT22;10102;50.828;4.416;2023-05-07T02:58:40;17.00;99.90
19880;DHT22;10102;50.828;4.416;2023-05-07T03:01:08;17.10;99.90
19880;DHT22;10102;50.828;4.416;2023-05-07T03:03:34;17.00;99.90
19880;DHT22;10102;50.828;4.416;2023-05-07T03:06:00;17.10;99.90
19880;DHT22;10102;50.828;4.416;2023-05-07T03:08:25;17.30;99.90
19880;DHT22;10102;50.828;4.416;2023-05-07T03:10:51;17.20;99.90
19880;DHT22;10102;50.828;4.416;2023-05-07T03:13:17;17.10;99.90
19880;DHT22;10102;50.828;4.416;2023-05-07T03:15:43;17.30;99.90
19880;DHT22;10102;50.828;4.416;2023-05-07T03:18:08;17.20;99.90
19880;DHT22;10102;50.828;4.416;2023-05-07T03:20:34;17.20;99.90
19880;DHT22;10102;50.828;4.416;2023-05-07T03:23:02;17.20;99.90
19880;DHT22;10102;50.828;4.416;2023-05-07T03:25:28;17.20;99.90
19880;DHT22;10102;50.828;4.416;2023-05-07T03:27:55;17.30;99.90
19880;DHT22;10102;50.828;4.416;2023-05-07T03:30:21;17.20;99.90
19880;DHT22;10102;50.828;4.416;2023-05-07T03:32:47;17.40;99.90
19880;DHT22;10102;50.828;4.416;2023-05-07T03:35:12;17.30;99.90
19880;DHT22;10102;50.828;4.416;2023-05-07T03:37:38;17.30;99.90
19880;DHT22;10102;50.828;4.416;2023-05-07T03:40:05;17.20;99.90
19880;DHT22;10102;50.828;4.416;2023-05-07T03:42:31;17.40;99.90
19880;DHT22;10102;50.828;4.416;2023-05-07T03:44:56;17.30;99.90
19880;DHT22;10102;50.828;4.416;2023-05-07T03:47:22;17.50;99.90
19880;DHT22;10102;50.828;4.416;2023-05-07T03:49:48;17.40;99.90
19880;DHT22;10102;50.828;4.416;2023-05-07T03:52:15;17.40;99.90
19880;DHT22;10102;50.828;4.416;2023-05-07T03:54:40;17.40;99.90
19880;DHT22;10102;50.828;4.416;2023-05-07T03:57:06;17.30;99.90
19880;DHT22;10102;50.828;4.416;2023-05-07T03:59:32;17.20;99.90
19880;DHT22;10102;50.828;4.416;2023-05-07T04:01:58;17.20;99.90
19880;DHT22;10102;50.828;4.416;2023-05-07T04:04:24;17.20;99.90
19880;DHT22;10102;50.828;4.416;2023-05-07T04:06:49;17.30;99.90
19880;DHT22;10102;50.828;4.416;2023-05-07T04:09:15;17.40;99.90
19880;DHT22;10102;50.828;4.416;2023-05-07T04:11:41;17.40;99.90
19880;DHT22;10102;50.828;4.416;2023-05-07T04:14:06;17.30;99.90
19880;DHT22;10102;50.828;4.416;2023-05-07T04:16:32;17.40;99.90
19880;DHT22;10102;50.828;4.416;2023-05-07T04:18:59;17.50;99.90
19880;DHT22;10102;50.828;4.416;2023-05-07T04:21:25;17.70;99.90
19880;DHT22;10102;50.828;4.416;2023-05-07T04:23:51;17.60;99.90
19880;DHT22;10102;50.828;4.416;2023-05-07T04:26:17;17.50;99.90
19880;DHT22;10102;50.828;4.416;2023-05-07T04:28:44;17.70;99.90
19880;DHT22;10102;50.828;4.416;2023-05-07T04:31:10;17.80;99.90
19880;DHT22;10102;50.828;4.416;2023-05-07T04:33:35;17.80;99.90
19880;DHT22;10102;50.828;4.416;2023-05-07T04:36:02;17.50;99.90
19880;DHT22;10102;50.828;4.416;2023-05-07T04:38:31;17.50;99.90
19880;DHT22;10102;50.828;4.416;2023-05-07T04:41:06;17.60;99.90
19880;DHT22;10102;50.828;4.416;2023-05-07T04:43:32;17.50;99.90
19880;DHT22;10102;50.828;4.416;2023-05-07T04:45:58;17.40;99.90
19880;DHT22;10102;50.828;4.416;2023-05-07T04:48:24;17.50;99.90
19880;DHT22;10102;50.828;4.416;2023-05-07T04:50:50;17.60;99.90
19880;DHT22;10102;50.828;4.416;2023-05-07T04:53:16;17.70;99.90
19880;DHT22;10102;50.828;4.416;2023-05-07T04:55:43;17.60;99.90
19880;DHT22;10102;50.828;4.416;2023-05-07T04:58:09;17.60;99.90
19880;DHT22;10102;50.828;4.416;2023-05-07T05:00:35;17.70;99.90
19880;DHT22;10102;50.828;4.416;2023-05-07T05:03:01;17.60;99.90
19880;DHT22;10102;50.828;4.416;2023-05-07T05:05:26;17.70;99.90
19880;DHT22;10102;50.828;4.416;2023-05-07T05:07:52;17.70;99.90
19880;DHT22;10102;50.828;4.416;2023-05-07T05:10:18;17.70;99.90
19880;DHT22;10102;50.828;4.416;2023-05-07T05:12:47;17.70;99.90
19880;DHT22;10102;50.828;4.416;2023-05-07T05:15:12;17.80;99.90
19880;DHT22;10102;50.828;4.416;2023-05-07T05:17:39;17.90;99.90
19880;DHT22;10102;50.828;4.416;2023-05-07T05:20:06;17.90;99.90
19880;DHT22;10102;50.828;4.416;2023-05-07T05:22:32;18.00;99.90
19880;DHT22;10102;50.828;4.416;2023-05-07T05:24:59;18.30;99.90
19880;DHT22;10102;50.828;4.416;2023-05-07T05:27:25;18.30;99.90
19880;DHT22;10102;50.828;4.416;2023-05-07T05:29:51;18.40;99.90
19880;DHT22;10102;50.828;4.416;2023-05-07T05:32:16;18.40;99.90
19880;DHT22;10102;50.828;4.416;2023-05-07T05:34:42;18.40;99.90
19880;DHT22;10102;50.828;4.416;2023-05-07T05:37:09;18.60;99.90
19880;DHT22;10102;50.828;4.416;2023-05-07T05:39:35;18.50;99.90
19880;DHT22;10102;50.828;4.416;2023-05-07T05:42:01;18.50;99.90
19880;DHT22;10102;50.828;4.416;2023-05-07T05:44:26;18.50;99.90
19880;DHT22;10102;50.828;4.416;2023-05-07T05:46:52;18.50;99.90
19880;DHT22;10102;50.828;4.416;2023-05-07T05:49:21;18.60;99.90
19880;DHT22;10102;50.828;4.416;2023-05-07T05:51:47;18.50;99.90
19880;DHT22;10102;50.828;4.416;2023-05-07T05:54:13;18.60;99.90
19880;DHT22;10102;50.828;4.416;2023-05-07T05:56:38;18.70;99.90
19880;DHT22;10102;50.828;4.416;2023-05-07T05:59:04;18.70;99.90
19880;DHT22;10102;50.828;4.416;2023-05-07T06:01:30;18.60;99.90
19880;DHT22;10102;50.828;4.416;2023-05-07T06:03:56;18.60;99.90
19880;DHT22;10102;50.828;4.416;2023-05-07T06:06:22;18.50;99.90
19880;DHT22;10102;50.828;4.416;2023-05-07T06:08:47;18.60;99.90
19880;DHT22;10102;50.828;4.416;2023-05-07T06:11:13;18.40;99.90
19880;DHT22;10102;50.828;4.416;2023-05-07T06:13:39;18.20;99.90
19880;DHT22;10102;50.828;4.416;2023-05-07T06:16:05;18.20;99.90
19880;DHT22;10102;50.828;4.416;2023-05-07T06:18:31;18.40;99.90
19880;DHT22;10102;50.828;4.416;2023-05-07T06:21:00;18.20;99.90
19880;DHT22;10102;50.828;4.416;2023-05-07T06:23:26;18.20;99.90
19880;DHT22;10102;50.828;4.416;2023-05-07T06:25:54;18.00;99.90
19880;DHT22;10102;50.828;4.416;2023-05-07T06:28:21;18.00;99.90
19880;DHT22;10102;50.828;4.416;2023-05-07T06:30:46;18.00;99.90
19880;DHT22;10102;50.828;4.416;2023-05-07T06:33:12;17.80;99.90
19880;DHT22;10102;50.828;4.416;2023-05-07T06:35:42;18.00;99.90
19880;DHT22;10102;50.828;4.416;2023-05-07T06:40:35;17.90;99.90
19880;DHT22;10102;50.828;4.416;2023-05-07T06:43:01;17.70;99.90
19880;DHT22;10102;50.828;4.416;2023-05-07T06:45:26;17.70;99.90
19880;DHT22;10102;50.828;4.416;2023-05-07T06:47:52;17.60;99.90
19880;DHT22;10102;50.828;4.416;2023-05-07T06:50:19;17.70;99.90
19880;DHT22;10102;50.828;4.416;2023-05-07T06:52:44;17.60;99.90
19880;DHT22;10102;50.828;4.416;2023-05-07T06:57:37;17.50;99.90
19880;DHT22;10102;50.828;4.416;2023-05-07T07:00:03;17.60;99.90
19880;DHT22;10102;50.828;4.416;2023-05-07T07:02:32;17.60;99.90
19880;DHT22;10102;50.828;4.416;2023-05-07T07:04:58;17.70;99.90
19880;DHT22;10102;50.828;4.416;2023-05-07T07:07:24;17.60;99.90
19880;DHT22;10102;50.828;4.416;2023-05-07T07:09:49;17.50;99.90
19880;DHT22;10102;50.828;4.416;2023-05-07T07:12:16;17.60;99.90
19880;DHT22;10102;50.828;4.416;2023-05-07T07:14:42;17.80;99.90
19880;DHT22;10102;50.828;4.416;2023-05-07T07:17:08;17.70;99.90
19880;DHT22;10102;50.828;4.416;2023-05-07T07:19:33;17.70;99.90
19880;DHT22;10102;50.828;4.416;2023-05-07T07:21:59;17.70;99.90
19880;DHT22;10102;50.828;4.416;2023-05-07T07:24:24;17.70;99.90
19880;DHT22;10102;50.828;4.416;2023-05-07T07:29:17;18.10;99.90
19880;DHT22;10102;50.828;4.416;2023-05-07T07:31:44;17.70;99.90
19880;DHT22;10102;50.828;4.416;2023-05-07T07:34:09;17.80;99.90
19880;DHT22;10102;50.828;4.416;2023-05-07T07:36:35;17.80;99.90
19880;DHT22;10102;50.828;4.416;2023-05-07T07:39:01;17.90;99.90
19880;DHT22;10102;50.828;4.416;2023-05-07T07:41:26;17.90;99.90
19880;DHT22;10102;50.828;4.416;2023-05-07T07:43:52;18.00;99.90
19880;DHT22;10102;50.828;4.416;2023-05-07T07:46:17;17.90;99.90
19880;DHT22;10102;50.828;4.416;2023-05-07T07:48:43;17.90;99.90
19880;DHT22;10102;50.828;4.416;2023-05-07T07:51:09;18.10;99.90
19880;DHT22;10102;50.828;4.416;2023-05-07T07:53:35;18.00;99.90
19880;DHT22;10102;50.828;4.416;2023-05-07T07:56:00;17.90;99.90
19880;DHT22;10102;50.828;4.416;2023-05-07T07:58:26;18.00;99.90
19880;DHT22;10102;50.828;4.416;2023-05-07T08:00:52;18.20;99.90
19880;DHT22;10102;50.828;4.416;2023-05-07T08:03:17;18.20;99.90
19880;DHT22;10102;50.828;4.416;2023-05-07T08:05:44;18.20;99.90
19880;DHT22;10102;50.828;4.416;2023-05-07T08:08:10;18.20;99.90
19880;DHT22;10102;50.828;4.416;2023-05-07T08:10:36;18.30;99.90
19880;DHT22;10102;50.828;4.416;2023-05-07T08:13:05;18.40;99.90
19880;DHT22;10102;50.828;4.416;2023-05-07T08:15:31;18.60;99.90
19880;DHT22;10102;50.828;4.416;2023-05-07T08:17:58;18.60;99.90
19880;DHT22;10102;50.828;4.416;2023-05-07T08:20:25;18.60;99.90
19880;DHT22;10102;50.828;4.416;2023-05-07T08:22:51;18.50;99.90
19880;DHT22;10102;50.828;4.416;2023-05-07T08:25:17;18.50;99.90
19880;DHT22;10102;50.828;4.416;2023-05-07T08:27:42;18.50;99.90
19880;DHT22;10102;50.828;4.416;2023-05-07T08:30:10;18.40;99.90
19880;DHT22;10102;50.828;4.416;2023-05-07T08:32:36;18.50;99.90
19880;DHT22;10102;50.828;4.416;2023-05-07T08:35:02;18.50;99.90
19880;DHT22;10102;50.828;4.416;2023-05-07T08:37:27;18.60;99.90
19880;DHT22;10102;50.828;4.416;2023-05-07T08:39:53;18.60;99.90
19880;DHT22;10102;50.828;4.416;2023-05-07T08:42:20;18.70;99.90
19880;DHT22;10102;50.828;4.416;2023-05-07T08:44:51;18.70;99.90
19880;DHT22;10102;50.828;4.416;2023-05-07T08:47:19;18.60;99.90
19880;DHT22;10102;50.828;4.416;2023-05-07T08:49:45;18.60;99.90
19880;DHT22;10102;50.828;4.416;2023-05-07T08:52:12;19.00;99.90
19880;DHT22;10102;50.828;4.416;2023-05-07T08:54:38;19.00;99.90
19880;DHT22;10102;50.828;4.416;2023-05-07T08:57:04;19.20;99.90
19880;DHT22;10102;50.828;4.416;2023-05-07T08:59:30;19.30;99.90
19880;DHT22;10102;50.828;4.416;2023-05-07T09:01:57;19.30;99.90
19880;DHT22;10102;50.828;4.416;2023-05-07T09:04:28;19.40;99.90
19880;DHT22;10102;50.828;4.416;2023-05-07T09:06:55;19.40;99.90
19880;DHT22;10102;50.828;4.416;2023-05-07T09:09:22;19.60;99.90
19880;DHT22;10102;50.828;4.416;2023-05-07T09:11:47;19.60;99.90
19880;DHT22;10102;50.828;4.416;2023-05-07T09:14:13;19.60;99.90
19880;DHT22;10102;50.828;4.416;2023-05-07T09:16:38;19.70;99.90
19880;DHT22;10102;50.828;4.416;2023-05-07T09:19:04;19.60;99.90
19880;DHT22;10102;50.828;4.416;2023-05-07T09:21:32;19.70;99.90
19880;DHT22;10102;50.828;4.416;2023-05-07T09:23:58;19.80;99.90
19880;DHT22;10102;50.828;4.416;2023-05-07T09:26:24;20.10;99.90
19880;DHT22;10102;50.828;4.416;2023-05-07T09:28:51;19.80;99.90
19880;DHT22;10102;50.828;4.416;2023-05-07T09:31:17;19.90;99.90
19880;DHT22;10102;50.828;4.416;2023-05-07T09:33:42;20.10;99.90
19880;DHT22;10102;50.828;4.416;2023-05-07T09:36:09;20.20;99.90
19880;DHT22;10102;50.828;4.416;2023-05-07T09:38:37;20.20;99.90
19880;DHT22;10102;50.828;4.416;2023-05-07T09:41:07;20.30;99.90
19880;DHT22;10102;50.828;4.416;2023-05-07T09:43:38;20.50;99.90
19880;DHT22;10102;50.828;4.416;2023-05-07T09:46:14;20.30;99.90
19880;DHT22;10102;50.828;4.416;2023-05-07T09:48:42;19.90;99.90
19880;DHT22;10102;50.828;4.416;2023-05-07T09:51:39;19.80;99.90
19880;DHT22;10102;50.828;4.416;2023-05-07T09:54:07;19.90;99.90
19880;DHT22;10102;50.828;4.416;2023-05-07T09:56:33;19.80;99.90
19880;DHT22;10102;50.828;4.416;2023-05-07T09:59:00;19.90;99.90
19880;DHT22;10102;50.828;4.416;2023-05-07T10:01:27;20.10;99.90
19880;DHT22;10102;50.828;4.416;2023-05-07T10:03:53;20.30;99.90
19880;DHT22;10102;50.828;4.416;2023-05-07T10:06:24;20.40;99.90
19880;DHT22;10102;50.828;4.416;2023-05-07T10:08:51;20.50;99.90
19880;DHT22;10102;50.828;4.416;2023-05-07T10:11:18;20.60;99.90
19880;DHT22;10102;50.828;4.416;2023-05-07T10:13:43;20.70;99.90
19880;DHT22;10102;50.828;4.416;2023-05-07T10:16:10;20.90;99.90
19880;DHT22;10102;50.828;4.416;2023-05-07T10:18:37;20.90;99.90
19880;DHT22;10102;50.828;4.416;2023-05-07T10:21:08;20.80;99.90
19880;DHT22;10102;50.828;4.416;2023-05-07T10:23:36;20.70;99.90
19880;DHT22;10102;50.828;4.416;2023-05-07T10:26:06;20.70;99.90
19880;DHT22;10102;50.828;4.416;2023-05-07T10:28:37;20.60;99.90
19880;DHT22;10102;50.828;4.416;2023-05-07T10:33:54;20.10;99.90
19880;DHT22;10102;50.828;4.416;2023-05-07T10:36:21;20.20;99.90
19880;DHT22;10102;50.828;4.416;2023-05-07T10:38:47;20.10;99.90
19880;DHT22;10102;50.828;4.416;2023-05-07T10:41:13;20.10;99.90
19880;DHT22;10102;50.828;4.416;2023-05-07T10:43:42;19.50;99.90
19880;DHT22;10102;50.828;4.416;2023-05-07T10:46:22;19.30;99.90
19880;DHT22;10102;50.828;4.416;2023-05-07T10:51:30;19.70;99.90
19880;DHT22;10102;50.828;4.416;2023-05-07T10:56:36;19.60;99.90
19880;DHT22;10102;50.828;4.416;2023-05-07T11:01:57;20.00;99.90
19880;DHT22;10102;50.828;4.416;2023-05-07T11:04:24;20.10;99.90
19880;DHT22;10102;50.828;4.416;2023-05-07T11:12:18;20.50;99.90
19880;DHT22;10102;50.828;4.416;2023-05-07T11:15:04;20.70;99.90
19880;DHT22;10102;50.828;4.416;2023-05-07T11:17:30;21.00;99.90
19880;DHT22;10102;50.828;4.416;2023-05-07T11:20:01;21.00;99.90
19880;DHT22;10102;50.828;4.416;2023-05-07T11:24:59;21.40;99.90
19880;DHT22;10102;50.828;4.416;2023-05-07T11:27:25;21.60;99.90
19880;DHT22;10102;50.828;4.416;2023-05-07T11:29:51;21.60;99.90
19880;DHT22;10102;50.828;4.416;2023-05-07T11:34:57;21.70;99.90
19880;DHT22;10102;50.828;4.416;2023-05-07T11:37:24;21.70;99.90
19880;DHT22;10102;50.828;4.416;2023-05-07T11:39:50;21.70;99.90
19880;DHT22;10102;50.828;4.416;2023-05-07T11:42:30;21.80;99.90
19880;DHT22;10102;50.828;4.416;2023-05-07T11:44:56;22.00;99.90
19880;DHT22;10102;50.828;4.416;2023-05-07T11:47:22;22.00;99.90
19880;DHT22;10102;50.828;4.416;2023-05-07T11:49:49;22.00;99.90
19880;DHT22;10102;50.828;4.416;2023-05-07T11:52:16;21.90;99.90
19880;DHT22;10102;50.828;4.416;2023-05-07T11:54:43;21.90;99.90
19880;DHT22;10102;50.828;4.416;2023-05-07T11:57:17;22.00;99.90
19880;DHT22;10102;50.828;4.416;2023-05-07T11:59:42;21.90;99.90
19880;DHT22;10102;50.828;4.416;2023-05-07T12:02:14;22.10;99.90
19880;DHT22;10102;50.828;4.416;2023-05-07T12:04:41;22.00;99.90
19880;DHT22;10102;50.828;4.416;2023-05-07T12:07:12;22.10;99.90
19880;DHT22;10102;50.828;4.416;2023-05-07T12:09:39;22.40;99.90
19880;DHT22;10102;50.828;4.416;2023-05-07T12:12:05;22.80;99.90
19880;DHT22;10102;50.828;4.416;2023-05-07T12:14:31;23.00;99.90
19880;DHT22;10102;50.828;4.416;2023-05-07T12:17:01;23.20;99.90
19880;DHT22;10102;50.828;4.416;2023-05-07T12:19:30;23.10;99.90
19880;DHT22;10102;50.828;4.416;2023-05-07T12:21:56;22.00;99.90
19880;DHT22;10102;50.828;4.416;2023-05-07T12:24:22;21.90;99.90
19880;DHT22;10102;50.828;4.416;2023-05-07T12:26:48;22.00;99.90
19880;DHT22;10102;50.828;4.416;2023-05-07T12:29:15;22.00;99.90
19880;DHT22;10102;50.828;4.416;2023-05-07T12:31:41;22.20;99.90
19880;DHT22;10102;50.828;4.416;2023-05-07T12:34:07;22.20;99.90
19880;DHT22;10102;50.828;4.416;2023-05-07T12:36:37;22.30;99.90
19880;DHT22;10102;50.828;4.416;2023-05-07T12:39:05;22.40;99.90
19880;DHT22;10102;50.828;4.416;2023-05-07T12:41:36;22.50;99.90
19880;DHT22;10102;50.828;4.416;2023-05-07T12:44:17;22.10;99.90
19880;DHT22;10102;50.828;4.416;2023-05-07T12:46:42;21.80;99.90
19880;DHT22;10102;50.828;4.416;2023-05-07T12:49:08;22.00;99.90
19880;DHT22;10102;50.828;4.416;2023-05-07T12:51:35;22.00;99.90
19880;DHT22;10102;50.828;4.416;2023-05-07T12:54:00;21.90;99.90
19880;DHT22;10102;50.828;4.416;2023-05-07T12:56:31;22.30;99.90
19880;DHT22;10102;50.828;4.416;2023-05-07T12:58:59;22.30;99.90
19880;DHT22;10102;50.828;4.416;2023-05-07T13:01:29;22.60;99.90
19880;DHT22;10102;50.828;4.416;2023-05-07T13:04:00;22.70;99.90
19880;DHT22;10102;50.828;4.416;2023-05-07T13:06:26;22.70;99.90
19880;DHT22;10102;50.828;4.416;2023-05-07T13:08:53;22.30;99.90
19880;DHT22;10102;50.828;4.416;2023-05-07T13:11:18;22.10;99.90
19880;DHT22;10102;50.828;4.416;2023-05-07T13:13:44;22.00;99.90
19880;DHT22;10102;50.828;4.416;2023-05-07T13:16:11;22.10;99.90
19880;DHT22;10102;50.828;4.416;2023-05-07T13:18:38;22.30;99.90
19880;DHT22;10102;50.828;4.416;2023-05-07T13:21:04;22.30;99.90
19880;DHT22;10102;50.828;4.416;2023-05-07T13:23:30;22.00;99.90
19880;DHT22;10102;50.828;4.416;2023-05-07T13:25:56;21.90;99.90
19880;DHT22;10102;50.828;4.416;2023-05-07T13:28:25;22.10;99.90
19880;DHT22;10102;50.828;4.416;2023-05-07T13:30:52;22.10;99.90
19880;DHT22;10102;50.828;4.416;2023-05-07T13:33:19;22.10;99.90
19880;DHT22;10102;50.828;4.416;2023-05-07T13:35:45;22.30;99.90
19880;DHT22;10102;50.828;4.416;2023-05-07T13:38:11;22.10;99.90
19880;DHT22;10102;50.828;4.416;2023-05-07T13:40:36;21.80;99.90
19880;DHT22;10102;50.828;4.416;2023-05-07T13:43:02;22.00;99.90
19880;DHT22;10102;50.828;4.416;2023-05-07T13:45:31;22.00;99.90
19880;DHT22;10102;50.828;4.416;2023-05-07T13:47:57;21.90;99.90
19880;DHT22;10102;50.828;4.416;2023-05-07T13:50:22;21.90;99.90
19880;DHT22;10102;50.828;4.416;2023-05-07T13:52:48;21.90;99.90
19880;DHT22;10102;50.828;4.416;2023-05-07T13:55:17;21.60;99.90
19880;DHT22;10102;50.828;4.416;2023-05-07T13:57:43;21.70;99.90
19880;DHT22;10102;50.828;4.416;2023-05-07T14:00:10;21.60;99.90
19880;DHT22;10102;50.828;4.416;2023-05-07T14:02:36;21.80;99.90
19880;DHT22;10102;50.828;4.416;2023-05-07T14:05:01;21.90;99.90
19880;DHT22;10102;50.828;4.416;2023-05-07T14:07:27;21.80;99.90
19880;DHT22;10102;50.828;4.416;2023-05-07T14:09:54;21.60;99.90
19880;DHT22;10102;50.828;4.416;2023-05-07T14:12:19;21.80;99.90
19880;DHT22;10102;50.828;4.416;2023-05-07T14:14:45;21.90;99.90
19880;DHT22;10102;50.828;4.416;2023-05-07T14:17:12;21.80;99.90
19880;DHT22;10102;50.828;4.416;2023-05-07T14:19:38;21.80;99.90
19880;DHT22;10102;50.828;4.416;2023-05-07T14:22:03;21.30;99.90
19880;DHT22;10102;50.828;4.416;2023-05-07T14:24:29;21.40;99.90
19880;DHT22;10102;50.828;4.416;2023-05-07T14:26:55;21.40;99.90
19880;DHT22;10102;50.828;4.416;2023-05-07T14:29:20;21.50;99.90
19880;DHT22;10102;50.828;4.416;2023-05-07T14:31:46;21.60;99.90
19880;DHT22;10102;50.828;4.416;2023-05-07T14:34:11;21.40;99.90
19880;DHT22;10102;50.828;4.416;2023-05-07T14:36:37;21.30;99.90
19880;DHT22;10102;50.828;4.416;2023-05-07T14:39:03;21.20;99.90
19880;DHT22;10102;50.828;4.416;2023-05-07T14:41:29;21.30;99.90
19880;DHT22;10102;50.828;4.416;2023-05-07T14:43:55;21.50;99.90
19880;DHT22;10102;50.828;4.416;2023-05-07T14:46:21;21.50;99.90
19880;DHT22;10102;50.828;4.416;2023-05-07T14:48:46;21.50;99.90
19880;DHT22;10102;50.828;4.416;2023-05-07T14:51:12;21.50;99.90
19880;DHT22;10102;50.828;4.416;2023-05-07T14:53:38;21.50;99.90
19880;DHT22;10102;50.828;4.416;2023-05-07T14:56:04;21.60;99.90
19880;DHT22;10102;50.828;4.416;2023-05-07T14:58:31;21.70;99.90
19880;DHT22;10102;50.828;4.416;2023-05-07T15:00:56;21.60;99.90
19880;DHT22;10102;50.828;4.416;2023-05-07T15:03:22;21.60;99.90
19880;DHT22;10102;50.828;4.416;2023-05-07T15:05:48;21.50;99.90
19880;DHT22;10102;50.828;4.416;2023-05-07T15:08:16;21.60;99.90
19880;DHT22;10102;50.828;4.416;2023-05-07T15:10:42;21.50;99.90
19880;DHT22;10102;50.828;4.416;2023-05-07T15:13:09;21.40;99.90
19880;DHT22;10102;50.828;4.416;2023-05-07T15:15:35;20.90;99.90
19880;DHT22;10102;50.828;4.416;2023-05-07T15:18:01;20.70;99.90
19880;DHT22;10102;50.828;4.416;2023-05-07T15:20:27;20.70;99.90
19880;DHT22;10102;50.828;4.416;2023-05-07T15:22:52;20.90;99.90
19880;DHT22;10102;50.828;4.416;2023-05-07T15:25:18;20.70;99.90
19880;DHT22;10102;50.828;4.416;2023-05-07T15:27:44;20.90;99.90
19880;DHT22;10102;50.828;4.416;2023-05-07T15:30:10;20.70;99.90
19880;DHT22;10102;50.828;4.416;2023-05-07T15:32:39;20.70;99.90
19880;DHT22;10102;50.828;4.416;2023-05-07T15:35:06;20.70;99.90
19880;DHT22;10102;50.828;4.416;2023-05-07T15:37:32;20.70;99.90
19880;DHT22;10102;50.828;4.416;2023-05-07T15:39:57;20.80;99.90
19880;DHT22;10102;50.828;4.416;2023-05-07T15:42:23;20.90;99.90
19880;DHT22;10102;50.828;4.416;2023-05-07T15:44:49;20.80;99.90
19880;DHT22;10102;50.828;4.416;2023-05-07T15:47:15;20.70;99.90
19880;DHT22;10102;50.828;4.416;2023-05-07T15:49:41;20.80;99.90
19880;DHT22;10102;50.828;4.416;2023-05-07T15:52:07;20.80;99.90
19880;DHT22;10102;50.828;4.416;2023-05-07T15:54:35;20.80;99.90
19880;DHT22;10102;50.828;4.416;2023-05-07T15:57:03;21.00;99.90